RPC915 RPVP-RPLL
Flight info
| Callsign | RPC915 |
|---|---|
| Flight time | N/A |
| Altitude | 45000 |
| Route | DABOY1E DABOY W281 LEGED N884 LUBAN LUBAN5P |
| Aircraft | C700/M-SBDGHM1RWXY/LB2 |
Departure
| Time | 2026-04-16 14:30 |
|---|---|
| Airport | Puerto Princesa International Airport / PAF Antonio Bautista Air Base (RPVP) |
Arrival
| Time | N/A |
|---|---|
| Airport | Ninoy Aquino International Airport (RPLL) |
| Time | Latitude | Longitude | Altitude | Speed | Heading |
|---|---|---|---|---|---|
| 2026-04-16 14:12 | 9.74083 | 118.75832 | 59 ft | 0 kts | 106° |
| 2026-04-16 14:27 | 9.74079 | 118.75820 | 57 ft | 5 kts | 287° |
| 2026-04-16 14:27 | 9.74105 | 118.75754 | 58 ft | 16 kts | 283° |
| 2026-04-16 14:27 | 9.74147 | 118.75608 | 57 ft | 27 kts | 297° |
| 2026-04-16 14:27 | 9.74234 | 118.75420 | 66 ft | 33 kts | 272° |
| 2026-04-16 14:28 | 9.74246 | 118.75156 | 69 ft | 42 kts | 274° |
| 2026-04-16 14:28 | 9.74256 | 118.74850 | 66 ft | 40 kts | 266° |
| 2026-04-16 14:28 | 9.74188 | 118.74720 | 64 ft | 8 kts | 284° |
| 2026-04-16 14:28 | 9.74236 | 118.74746 | 64 ft | 14 kts | 49° |
| 2026-04-16 14:29 | 9.74261 | 118.74861 | 72 ft | 11 kts | 92° |
| 2026-04-16 14:29 | 9.74257 | 118.74892 | 72 ft | 2 kts | 93° |
| 2026-04-16 14:29 | 9.74242 | 118.75244 | 65 ft | 105 kts | 92° |
| 2026-04-16 14:29 | 9.74189 | 118.76262 | 478 ft | 171 kts | 93° |
| 2026-04-16 14:30 | 9.74116 | 118.77568 | 1639 ft | 202 kts | 92° |
| 2026-04-16 14:30 | 9.74243 | 118.78542 | 2494 ft | 222 kts | 68° |
| 2026-04-16 14:30 | 9.75332 | 118.79712 | 3978 ft | 244 kts | 26° |
| 2026-04-16 14:30 | 9.77655 | 118.80040 | 6254 ft | 261 kts | 4° |
| 2026-04-16 14:31 | 9.79480 | 118.80177 | 7972 ft | 265 kts | 9° |
| 2026-04-16 14:31 | 9.80680 | 118.80415 | 9150 ft | 266 kts | 15° |
| 2026-04-16 14:31 | 9.82434 | 118.81001 | 10856 ft | 265 kts | 21° |
| 2026-04-16 14:31 | 9.84177 | 118.81641 | 12419 ft | 270 kts | 20° |
| 2026-04-16 14:32 | 9.85994 | 118.82229 | 13849 ft | 277 kts | 18° |
| 2026-04-16 14:32 | 9.87857 | 118.82816 | 15009 ft | 284 kts | 19° |
| 2026-04-16 14:32 | 9.89813 | 118.83228 | 16128 ft | 295 kts | 6° |
| 2026-04-16 14:32 | 9.91960 | 118.83207 | 16795 ft | 323 kts | 359° |
| 2026-04-16 14:33 | 9.94300 | 118.83121 | 17418 ft | 350 kts | 360° |
| 2026-04-16 14:33 | 9.96761 | 118.83051 | 18529 ft | 356 kts | 360° |
| 2026-04-16 14:33 | 9.99262 | 118.82980 | 19585 ft | 363 kts | 360° |
| 2026-04-16 14:33 | 10.01811 | 118.82903 | 20596 ft | 370 kts | 359° |
| 2026-04-16 14:34 | 10.04408 | 118.82824 | 21613 ft | 377 kts | 359° |
| 2026-04-16 14:34 | 10.07056 | 118.82745 | 22603 ft | 384 kts | 359° |
| 2026-04-16 14:34 | 10.09751 | 118.82665 | 23567 ft | 391 kts | 359° |
| 2026-04-16 14:34 | 10.12493 | 118.82584 | 24370 ft | 397 kts | 359° |
| 2026-04-16 14:35 | 10.15272 | 118.82501 | 25190 ft | 402 kts | 358° |
| 2026-04-16 14:35 | 10.18090 | 118.82417 | 25996 ft | 408 kts | 358° |
| 2026-04-16 14:35 | 10.20944 | 118.82332 | 26785 ft | 413 kts | 358° |
| 2026-04-16 14:35 | 10.23839 | 118.82245 | 27559 ft | 419 kts | 358° |
| 2026-04-16 14:36 | 10.26770 | 118.82158 | 28344 ft | 424 kts | 358° |
| 2026-04-16 14:36 | 10.29735 | 118.82070 | 29091 ft | 429 kts | 358° |
| 2026-04-16 14:36 | 10.32739 | 118.81980 | 29819 ft | 434 kts | 357° |
| 2026-04-16 14:36 | 10.35779 | 118.81889 | 30462 ft | 439 kts | 357° |
| 2026-04-16 14:37 | 10.38846 | 118.81798 | 31103 ft | 443 kts | 357° |
| 2026-04-16 14:37 | 10.41942 | 118.81788 | 31728 ft | 447 kts | 2° |
| 2026-04-16 14:37 | 10.45060 | 118.82034 | 32330 ft | 451 kts | 4° |
| 2026-04-16 14:37 | 10.48205 | 118.82260 | 32913 ft | 455 kts | 3° |
| 2026-04-16 14:38 | 10.51372 | 118.82463 | 33611 ft | 455 kts | 2° |
| 2026-04-16 14:38 | 10.54522 | 118.82680 | 34343 ft | 453 kts | 3° |
| 2026-04-16 14:38 | 10.57658 | 118.82909 | 35030 ft | 451 kts | 3° |
| 2026-04-16 14:38 | 10.60777 | 118.83131 | 35736 ft | 448 kts | 3° |
| 2026-04-16 14:39 | 10.63881 | 118.83344 | 36430 ft | 446 kts | 4° |
| 2026-04-16 14:39 | 10.66973 | 118.83559 | 37140 ft | 444 kts | 4° |
| 2026-04-16 14:39 | 10.70049 | 118.83776 | 37816 ft | 442 kts | 5° |
| 2026-04-16 14:39 | 10.73113 | 118.83993 | 38455 ft | 440 kts | 5° |
| 2026-04-16 14:40 | 10.76164 | 118.84207 | 38960 ft | 439 kts | 5° |
| 2026-04-16 14:40 | 10.79212 | 118.84420 | 39400 ft | 438 kts | 5° |
| 2026-04-16 14:40 | 10.82252 | 118.84633 | 39826 ft | 437 kts | 5° |
| 2026-04-16 14:40 | 10.85282 | 118.84847 | 40233 ft | 436 kts | 5° |
| 2026-04-16 14:41 | 10.88307 | 118.85059 | 40605 ft | 435 kts | 5° |
| 2026-04-16 14:41 | 10.91326 | 118.85271 | 40961 ft | 434 kts | 5° |
| 2026-04-16 14:41 | 10.94337 | 118.85482 | 41302 ft | 433 kts | 5° |
| 2026-04-16 14:41 | 10.97345 | 118.85694 | 41621 ft | 433 kts | 5° |
| 2026-04-16 14:42 | 11.00345 | 118.85906 | 41921 ft | 432 kts | 5° |
| 2026-04-16 14:42 | 11.03339 | 118.86116 | 42199 ft | 431 kts | 5° |
| 2026-04-16 14:42 | 11.06332 | 118.86327 | 42472 ft | 431 kts | 5° |
| 2026-04-16 14:42 | 11.09318 | 118.86537 | 42722 ft | 430 kts | 5° |
| 2026-04-16 14:43 | 11.12300 | 118.86746 | 42960 ft | 429 kts | 5° |
| 2026-04-16 14:43 | 11.15279 | 118.86956 | 43200 ft | 429 kts | 5° |
| 2026-04-16 14:43 | 11.18252 | 118.87165 | 43416 ft | 428 kts | 5° |
| 2026-04-16 14:43 | 11.21225 | 118.87375 | 43627 ft | 428 kts | 5° |
| 2026-04-16 14:44 | 11.24191 | 118.87584 | 43838 ft | 427 kts | 5° |
| 2026-04-16 14:44 | 11.27155 | 118.87792 | 44037 ft | 427 kts | 5° |
| 2026-04-16 14:44 | 11.30114 | 118.88001 | 44228 ft | 426 kts | 5° |
| 2026-04-16 14:44 | 11.33066 | 118.88209 | 44417 ft | 425 kts | 5° |
| 2026-04-16 14:45 | 11.36017 | 118.88417 | 44573 ft | 425 kts | 5° |
| 2026-04-16 14:45 | 11.38965 | 118.88625 | 44699 ft | 425 kts | 5° |
| 2026-04-16 14:45 | 11.41872 | 118.88830 | 44802 ft | 425 kts | 4° |
| 2026-04-16 14:45 | 11.44820 | 118.89037 | 44907 ft | 425 kts | 5° |
| 2026-04-16 14:46 | 11.50753 | 118.89456 | 44920 ft | 430 kts | 4° |
| 2026-04-16 14:46 | 11.56762 | 118.89880 | 44918 ft | 435 kts | 4° |
| 2026-04-16 14:47 | 11.62841 | 118.90310 | 44936 ft | 440 kts | 4° |
| 2026-04-16 14:47 | 11.68985 | 118.90744 | 44937 ft | 445 kts | 4° |
| 2026-04-16 14:48 | 11.75191 | 118.91182 | 44936 ft | 449 kts | 4° |
| 2026-04-16 14:48 | 11.81454 | 118.91625 | 44935 ft | 453 kts | 4° |
| 2026-04-16 14:49 | 11.87771 | 118.92072 | 44933 ft | 457 kts | 4° |
| 2026-04-16 14:49 | 11.94132 | 118.92522 | 44935 ft | 460 kts | 4° |
| 2026-04-16 14:50 | 12.00537 | 118.92975 | 44934 ft | 463 kts | 4° |
| 2026-04-16 14:50 | 12.06978 | 118.93432 | 44931 ft | 465 kts | 4° |
| 2026-04-16 14:51 | 12.13441 | 118.93889 | 44933 ft | 466 kts | 4° |
| 2026-04-16 14:51 | 12.19912 | 118.94349 | 44936 ft | 466 kts | 4° |
| 2026-04-16 14:53 | 12.45777 | 118.96185 | 44935 ft | 466 kts | 4° |
| 2026-04-16 14:54 | 12.52240 | 118.96644 | 44934 ft | 466 kts | 4° |
| 2026-04-16 14:54 | 12.58708 | 118.97104 | 44939 ft | 466 kts | 4° |
| 2026-04-16 14:55 | 12.65176 | 118.97564 | 44937 ft | 466 kts | 4° |
| 2026-04-16 14:55 | 12.71644 | 118.98025 | 44936 ft | 466 kts | 4° |
| 2026-04-16 14:56 | 12.78113 | 118.98486 | 44934 ft | 466 kts | 4° |
| 2026-04-16 14:56 | 12.84579 | 118.98946 | 44938 ft | 466 kts | 4° |
| 2026-04-16 14:57 | 12.91046 | 118.99407 | 44941 ft | 466 kts | 4° |
| 2026-04-16 14:57 | 12.97444 | 119.00382 | 44932 ft | 467 kts | 17° |
| 2026-04-16 14:58 | 13.05764 | 119.05418 | 44934 ft | 469 kts | 44° |
| 2026-04-16 14:59 | 13.09911 | 119.10580 | 44941 ft | 470 kts | 51° |
| 2026-04-16 14:59 | 13.13933 | 119.15870 | 44941 ft | 470 kts | 51° |
| 2026-04-16 15:00 | 13.17945 | 119.21176 | 44941 ft | 471 kts | 51° |
| 2026-04-16 15:00 | 13.21967 | 119.26481 | 44942 ft | 471 kts | 51° |
| 2026-04-16 15:01 | 13.25985 | 119.31794 | 44940 ft | 471 kts | 51° |
| 2026-04-16 15:01 | 13.30005 | 119.37108 | 44942 ft | 471 kts | 51° |
| 2026-04-16 15:02 | 13.34026 | 119.42429 | 44944 ft | 472 kts | 51° |
| 2026-04-16 15:02 | 13.38054 | 119.47760 | 44937 ft | 473 kts | 51° |
| 2026-04-16 15:03 | 13.42085 | 119.53100 | 44942 ft | 473 kts | 51° |
| 2026-04-16 15:03 | 13.46117 | 119.58446 | 44939 ft | 474 kts | 51° |
| 2026-04-16 15:04 | 13.50153 | 119.63796 | 44937 ft | 474 kts | 51° |
| 2026-04-16 15:04 | 13.54188 | 119.69154 | 44942 ft | 474 kts | 51° |
| 2026-04-16 15:05 | 13.58228 | 119.74516 | 44943 ft | 475 kts | 51° |
| 2026-04-16 15:05 | 13.62272 | 119.79892 | 44944 ft | 475 kts | 51° |
| 2026-04-16 15:06 | 13.66315 | 119.85267 | 44941 ft | 475 kts | 52° |
| 2026-04-16 15:06 | 13.70354 | 119.90640 | 44939 ft | 473 kts | 52° |
| 2026-04-16 15:06 | 13.72365 | 119.93317 | 44807 ft | 474 kts | 52° |
| 2026-04-16 15:07 | 13.74377 | 119.95995 | 44156 ft | 471 kts | 52° |
| 2026-04-16 15:07 | 13.76340 | 119.98612 | 43555 ft | 458 kts | 52° |
| 2026-04-16 15:07 | 13.78274 | 120.01188 | 42955 ft | 452 kts | 52° |
| 2026-04-16 15:07 | 13.80184 | 120.03733 | 42369 ft | 447 kts | 52° |
| 2026-04-16 15:08 | 13.82079 | 120.06259 | 41783 ft | 445 kts | 52° |
| 2026-04-16 15:08 | 13.83970 | 120.08780 | 41197 ft | 446 kts | 52° |
| 2026-04-16 15:08 | 13.85922 | 120.11276 | 40608 ft | 451 kts | 47° |
| 2026-04-16 15:08 | 13.88136 | 120.13648 | 40005 ft | 469 kts | 45° |
| 2026-04-16 15:09 | 13.90430 | 120.16079 | 39375 ft | 475 kts | 46° |
| 2026-04-16 15:09 | 13.92707 | 120.18537 | 38752 ft | 473 kts | 46° |
| 2026-04-16 15:09 | 13.94960 | 120.20986 | 38086 ft | 468 kts | 46° |
| 2026-04-16 15:09 | 13.97194 | 120.23388 | 37473 ft | 461 kts | 46° |
| 2026-04-16 15:10 | 13.99401 | 120.25751 | 36875 ft | 455 kts | 46° |
| 2026-04-16 15:10 | 14.01575 | 120.28091 | 36281 ft | 450 kts | 46° |
| 2026-04-16 15:10 | 14.03722 | 120.30413 | 35694 ft | 446 kts | 46° |
| 2026-04-16 15:10 | 14.05855 | 120.32714 | 35112 ft | 442 kts | 46° |
| 2026-04-16 15:11 | 14.07976 | 120.34995 | 34529 ft | 439 kts | 46° |
| 2026-04-16 15:11 | 14.10081 | 120.37263 | 33956 ft | 436 kts | 46° |
| 2026-04-16 15:11 | 14.12168 | 120.39517 | 33346 ft | 432 kts | 46° |
| 2026-04-16 15:11 | 14.14231 | 120.41744 | 32788 ft | 428 kts | 46° |
| 2026-04-16 15:12 | 14.15586 | 120.43206 | 32409 ft | 425 kts | 46° |
| 2026-04-16 15:12 | 14.17622 | 120.45401 | 31850 ft | 422 kts | 46° |
| 2026-04-16 15:12 | 14.20316 | 120.48311 | 31122 ft | 417 kts | 46° |
| 2026-04-16 15:12 | 14.21703 | 120.49671 | 30749 ft | 415 kts | 39° |
| 2026-04-16 15:13 | 14.24072 | 120.51339 | 30210 ft | 411 kts | 29° |
| 2026-04-16 15:13 | 14.26582 | 120.52732 | 29635 ft | 408 kts | 28° |
| 2026-04-16 15:13 | 14.29064 | 120.54117 | 29093 ft | 403 kts | 28° |
| 2026-04-16 15:13 | 14.31517 | 120.55496 | 28564 ft | 400 kts | 28° |
| 2026-04-16 15:14 | 14.33948 | 120.56859 | 28040 ft | 396 kts | 28° |
| 2026-04-16 15:14 | 14.36361 | 120.58205 | 27514 ft | 393 kts | 28° |
| 2026-04-16 15:14 | 14.38752 | 120.59542 | 27010 ft | 389 kts | 28° |
| 2026-04-16 15:14 | 14.41122 | 120.60871 | 26497 ft | 386 kts | 28° |
| 2026-04-16 15:15 | 14.43471 | 120.62187 | 25993 ft | 383 kts | 28° |
| 2026-04-16 15:15 | 14.45802 | 120.63492 | 25476 ft | 379 kts | 28° |
| 2026-04-16 15:15 | 14.48107 | 120.64783 | 24995 ft | 375 kts | 29° |
| 2026-04-16 15:15 | 14.50389 | 120.66062 | 24506 ft | 372 kts | 29° |
| 2026-04-16 15:16 | 14.52652 | 120.67330 | 24022 ft | 368 kts | 29° |
| 2026-04-16 15:16 | 14.54895 | 120.68588 | 23535 ft | 366 kts | 29° |
| 2026-04-16 15:16 | 14.57118 | 120.69834 | 23009 ft | 361 kts | 29° |
| 2026-04-16 15:16 | 14.59312 | 120.71066 | 22537 ft | 357 kts | 29° |
| 2026-04-16 15:17 | 14.61483 | 120.72283 | 22067 ft | 354 kts | 29° |
| 2026-04-16 15:17 | 14.63634 | 120.73491 | 21603 ft | 351 kts | 29° |
| 2026-04-16 15:17 | 14.65733 | 120.74751 | 21140 ft | 348 kts | 35° |
| 2026-04-16 15:17 | 14.67535 | 120.76397 | 20686 ft | 346 kts | 47° |
| 2026-04-16 15:18 | 14.68974 | 120.78372 | 20231 ft | 344 kts | 58° |
| 2026-04-16 15:18 | 14.70058 | 120.80562 | 19780 ft | 341 kts | 64° |
| 2026-04-16 15:18 | 14.71100 | 120.82757 | 19337 ft | 339 kts | 63° |
| 2026-04-16 15:18 | 14.72143 | 120.84933 | 18890 ft | 337 kts | 63° |
| 2026-04-16 15:19 | 14.73173 | 120.87096 | 18450 ft | 334 kts | 63° |
| 2026-04-16 15:19 | 14.74193 | 120.89243 | 17985 ft | 331 kts | 63° |
| 2026-04-16 15:19 | 14.75201 | 120.91366 | 17537 ft | 327 kts | 63° |
| 2026-04-16 15:19 | 14.76201 | 120.93465 | 17107 ft | 324 kts | 63° |
| 2026-04-16 15:20 | 14.77190 | 120.95546 | 16682 ft | 321 kts | 63° |
| 2026-04-16 15:20 | 14.78173 | 120.97611 | 16256 ft | 319 kts | 63° |
| 2026-04-16 15:20 | 14.79144 | 120.99657 | 15962 ft | 313 kts | 63° |
| 2026-04-16 15:20 | 14.80093 | 121.01654 | 15958 ft | 306 kts | 63° |
| 2026-04-16 15:21 | 14.80995 | 121.03595 | 15906 ft | 292 kts | 66° |
| 2026-04-16 15:21 | 14.81388 | 121.05635 | 15364 ft | 293 kts | 88° |
| 2026-04-16 15:21 | 14.81102 | 121.07711 | 14848 ft | 294 kts | 106° |
| 2026-04-16 15:21 | 14.80158 | 121.09578 | 14343 ft | 295 kts | 125° |
| 2026-04-16 15:22 | 14.78665 | 121.11025 | 13868 ft | 296 kts | 142° |
| 2026-04-16 15:22 | 14.77050 | 121.12317 | 13350 ft | 291 kts | 135° |
| 2026-04-16 15:22 | 14.75903 | 121.14005 | 12813 ft | 286 kts | 114° |
| 2026-04-16 15:22 | 14.75364 | 121.15949 | 12399 ft | 278 kts | 95° |
| 2026-04-16 15:23 | 14.75450 | 121.17905 | 12060 ft | 269 kts | 77° |
| 2026-04-16 15:23 | 14.76095 | 121.19685 | 11743 ft | 262 kts | 61° |
| 2026-04-16 15:23 | 14.77001 | 121.21295 | 11433 ft | 256 kts | 60° |
| 2026-04-16 15:23 | 14.77875 | 121.22886 | 11117 ft | 252 kts | 60° |
| 2026-04-16 15:24 | 14.78745 | 121.24445 | 10801 ft | 249 kts | 60° |
| 2026-04-16 15:24 | 14.79509 | 121.26039 | 10475 ft | 247 kts | 71° |
| 2026-04-16 15:24 | 14.79832 | 121.27765 | 10161 ft | 245 kts | 85° |
| 2026-04-16 15:24 | 14.79720 | 121.29517 | 9834 ft | 245 kts | 100° |
| 2026-04-16 15:25 | 14.79173 | 121.31175 | 9491 ft | 244 kts | 115° |
| 2026-04-16 15:25 | 14.78237 | 121.32620 | 9176 ft | 242 kts | 129° |
| 2026-04-16 15:25 | 14.76986 | 121.33766 | 8887 ft | 241 kts | 144° |
| 2026-04-16 15:25 | 14.75526 | 121.34622 | 8582 ft | 242 kts | 150° |
| 2026-04-16 15:26 | 14.74063 | 121.35473 | 8264 ft | 241 kts | 149° |
| 2026-04-16 15:26 | 14.72608 | 121.36326 | 7950 ft | 240 kts | 149° |
| 2026-04-16 15:26 | 14.71153 | 121.37170 | 7633 ft | 240 kts | 149° |
| 2026-04-16 15:26 | 14.69674 | 121.37960 | 7294 ft | 240 kts | 160° |
| 2026-04-16 15:27 | 14.68055 | 121.37895 | 7199 ft | 234 kts | 202° |
| 2026-04-16 15:27 | 14.66882 | 121.36759 | 7191 ft | 239 kts | 243° |
| 2026-04-16 15:27 | 14.66628 | 121.35079 | 7216 ft | 240 kts | 275° |
| 2026-04-16 15:27 | 14.66768 | 121.33357 | 7290 ft | 242 kts | 272° |
| 2026-04-16 15:28 | 14.66694 | 121.31617 | 7377 ft | 243 kts | 263° |
| 2026-04-16 15:28 | 14.66341 | 121.29915 | 7460 ft | 240 kts | 251° |
| 2026-04-16 15:28 | 14.65630 | 121.28388 | 7497 ft | 235 kts | 238° |
| 2026-04-16 15:28 | 14.64744 | 121.26971 | 7525 ft | 235 kts | 237° |
| 2026-04-16 15:29 | 14.63993 | 121.25655 | 7801 ft | 183 kts | 240° |
| 2026-04-16 15:29 | 14.63377 | 121.24523 | 7990 ft | 174 kts | 239° |
| 2026-04-16 15:29 | 14.62673 | 121.23536 | 8116 ft | 170 kts | 222° |
| 2026-04-16 15:29 | 14.61963 | 121.22604 | 8098 ft | 155 kts | 240° |
| 2026-04-16 15:30 | 14.61463 | 121.21615 | 7206 ft | 160 kts | 240° |
| 2026-04-16 15:30 | 14.60911 | 121.20636 | 6388 ft | 158 kts | 240° |
| 2026-04-16 15:30 | 14.60404 | 121.19674 | 5461 ft | 148 kts | 242° |
| 2026-04-16 15:30 | 14.59905 | 121.18753 | 4501 ft | 142 kts | 239° |
| 2026-04-16 15:31 | 14.59430 | 121.17871 | 3567 ft | 139 kts | 242° |
| 2026-04-16 15:31 | 14.59284 | 121.17586 | 3273 ft | 138 kts | 242° |
| 2026-04-16 15:31 | 14.58977 | 121.17017 | 2941 ft | 128 kts | 240° |
| 2026-04-16 15:31 | 14.58050 | 121.15285 | 2763 ft | 145 kts | 242° |
| 2026-04-16 15:32 | 14.57548 | 121.14379 | 2574 ft | 146 kts | 240° |
| 2026-04-16 15:32 | 14.57065 | 121.13451 | 2386 ft | 147 kts | 242° |
| 2026-04-16 15:32 | 14.56561 | 121.12533 | 2185 ft | 147 kts | 240° |
| 2026-04-16 15:32 | 14.56077 | 121.11621 | 2002 ft | 147 kts | 242° |
| 2026-04-16 15:33 | 14.55575 | 121.10688 | 1802 ft | 147 kts | 240° |
| 2026-04-16 15:33 | 14.55249 | 121.10098 | 1673 ft | 138 kts | 241° |
| 2026-04-16 15:33 | 14.55101 | 121.09818 | 1609 ft | 135 kts | 242° |
| 2026-04-16 15:34 | 14.53800 | 121.07368 | 1109 ft | 142 kts | 241° |
| 2026-04-16 15:34 | 14.53316 | 121.06493 | 926 ft | 137 kts | 240° |
| 2026-04-16 15:34 | 14.53010 | 121.05923 | 796 ft | 137 kts | 240° |